createdAt,value
2018-02-09T00:00:42.451Z,38.85
2018-02-09T00:03:08.688Z,39.08
2018-02-09T00:05:35.237Z,36.65
2018-02-09T00:08:01.386Z,38.83
2018-02-09T00:10:28.274Z,36.53
2018-02-09T00:12:54.463Z,41.15
2018-02-09T00:15:21.770Z,34.97
2018-02-09T00:17:48.002Z,36.60
2018-02-09T00:20:14.581Z,38.05
2018-02-09T00:22:52.206Z,40.45
2018-02-09T00:25:18.360Z,39.50
2018-02-09T00:27:44.890Z,38.10
2018-02-09T00:30:11.054Z,37.80
2018-02-09T00:32:37.966Z,41.05
2018-02-09T00:35:04.143Z,38.05
2018-02-09T00:37:31.121Z,37.42
2018-02-09T00:39:57.256Z,37.92
2018-02-09T00:42:24.201Z,37.65
2018-02-09T00:44:50.356Z,37.67
2018-02-09T00:47:16.512Z,37.88
2018-02-09T00:49:43.438Z,37.80
2018-02-09T00:52:09.639Z,37.25
2018-02-09T00:54:35.824Z,38.47
2018-02-09T00:57:02.715Z,38.58
2018-02-09T00:59:29.271Z,38.50
2018-02-09T01:01:55.470Z,38.17
2018-02-09T01:04:22.416Z,37.65
2018-02-09T01:06:48.954Z,37.75
2018-02-09T01:09:15.208Z,36.13
2018-02-09T01:11:41.432Z,38.70
2018-02-09T01:14:07.651Z,37.30
2018-02-09T01:16:34.177Z,39.90
2018-02-09T01:19:00.706Z,40.20
2018-02-09T01:21:26.902Z,36.20
2018-02-09T01:23:53.769Z,38.60
2018-02-09T01:26:19.995Z,36.50
2018-02-09T01:28:46.197Z,37.70
2018-02-09T01:31:13.106Z,35.42
2018-02-09T01:33:39.270Z,36.58
2018-02-09T01:36:06.210Z,36.40
2018-02-09T01:38:33.136Z,39.38
2018-02-09T01:40:59.318Z,38.08
2018-02-09T01:43:25.499Z,40.35
2018-02-09T01:45:51.715Z,39.33
2018-02-09T01:48:17.881Z,39.05
2018-02-09T01:50:44.406Z,39.30
2018-02-09T01:53:11.328Z,40.70
2018-02-09T01:55:37.482Z,39.38
2018-02-09T01:58:04.430Z,39.85
2018-02-09T02:00:31.380Z,38.72
2018-02-09T02:02:58.360Z,40.35
2018-02-09T02:05:24.539Z,38.65
2018-02-09T02:07:51.519Z,37.78
2018-02-09T02:10:17.728Z,37.47
2018-02-09T02:12:44.656Z,40.75
2018-02-09T02:15:11.193Z,37.45
2018-02-09T02:17:37.363Z,36.75
2018-02-09T02:20:03.529Z,36.50
2018-02-09T02:22:29.677Z,36.70
2018-02-09T02:24:55.846Z,39.17
2018-02-09T02:27:21.996Z,36.97
2018-02-09T02:29:48.543Z,37.42
2018-02-09T02:32:14.699Z,37.50
2018-02-09T02:34:41.641Z,38.10
2018-02-09T02:37:08.535Z,39.15
2018-02-09T02:39:34.707Z,38.05
2018-02-09T02:42:00.934Z,37.63
2018-02-09T02:44:27.058Z,39.83
2018-02-09T02:46:53.297Z,39.03
2018-02-09T02:49:20.238Z,39.60
2018-02-09T02:51:46.672Z,38.80
2018-02-09T02:54:28.254Z,36.28
2018-02-09T02:56:54.614Z,37.28
2018-02-09T02:59:20.765Z,39.53
2018-02-09T03:01:46.972Z,38.95
2018-02-09T03:04:13.846Z,38.95
2018-02-09T03:06:40.041Z,40.08
2018-02-09T03:09:07.004Z,38.50
2018-02-09T03:11:33.202Z,39.03
2018-02-09T03:14:00.135Z,39.92
2018-02-09T03:16:26.337Z,39.85
2018-02-09T03:18:52.523Z,37.47
2018-02-09T03:21:19.432Z,38.08
2018-02-09T03:23:45.610Z,40.22
2018-02-09T03:26:11.789Z,39.33
2018-02-09T03:28:37.979Z,37.65
2018-02-09T03:31:04.146Z,39.83
2018-02-09T03:33:30.312Z,36.95
2018-02-09T03:35:56.498Z,41.70
2018-02-09T03:38:22.631Z,38.22
2018-02-09T03:40:48.801Z,41.35
2018-02-09T03:43:14.961Z,39.35
2018-02-09T03:45:41.135Z,40.17
2018-02-09T03:48:08.059Z,40.50
2018-02-09T03:50:34.260Z,39.85
2018-02-09T03:53:00.441Z,42.95
2018-02-09T03:55:27.369Z,40.95
2018-02-09T03:57:54.330Z,40.30
2018-02-09T04:00:21.262Z,41.88
2018-02-09T04:02:47.449Z,40.53
2018-02-09T04:05:13.661Z,41.58
2018-02-09T04:07:39.885Z,41.85
2018-02-09T04:10:06.047Z,37.97
2018-02-09T04:12:32.221Z,40.12
2018-02-09T04:14:58.744Z,39.45
2018-02-09T04:17:25.667Z,37.45
2018-02-09T04:19:51.832Z,40.65
2018-02-09T04:22:18.759Z,42.10
2018-02-09T04:24:44.932Z,43.25
2018-02-09T04:27:11.105Z,39.05
2018-02-09T04:29:37.318Z,40.92
2018-02-09T04:32:03.548Z,39.45
2018-02-09T04:34:30.121Z,43.47
2018-02-09T04:36:57.018Z,40.85
2018-02-09T04:39:23.199Z,39.35
2018-02-09T04:41:50.111Z,39.45
2018-02-09T04:44:16.262Z,39.75
2018-02-09T04:46:42.794Z,39.60
2018-02-09T04:49:09.737Z,39.45
2018-02-09T04:51:35.914Z,39.90
2018-02-09T04:54:02.055Z,42.35
2018-02-09T04:56:28.268Z,40.33
2018-02-09T04:58:54.433Z,39.97
2018-02-09T05:01:20.587Z,42.25
2018-02-09T05:03:47.514Z,42.58
2018-02-09T05:06:13.684Z,41.40
2018-02-09T05:08:39.814Z,41.85
2018-02-09T05:11:06.032Z,40.47
2018-02-09T05:13:32.165Z,38.60
2018-02-09T05:15:58.383Z,39.80
2018-02-09T05:18:24.608Z,41.20
2018-02-09T05:20:51.242Z,40.85
2018-02-09T05:23:18.149Z,41.60
2018-02-09T05:25:44.441Z,44.35
2018-02-09T05:28:11.081Z,41.97
2018-02-09T05:30:37.300Z,39.30
2018-02-09T05:33:03.498Z,42.22
2018-02-09T05:35:30.607Z,43.85
2018-02-09T05:37:56.786Z,41.80
2018-02-09T05:40:23.664Z,42.15
2018-02-09T05:42:50.073Z,43.63
2018-02-09T05:45:17.407Z,40.83
2018-02-09T05:47:44.425Z,43.72
2018-02-09T05:50:10.573Z,42.97
2018-02-09T05:52:36.788Z,42.60
2018-02-09T05:55:02.951Z,46.08
2018-02-09T05:57:29.873Z,45.60
2018-02-09T05:59:56.480Z,44.25
2018-02-09T06:02:22.757Z,48.45
2018-02-09T06:04:49.329Z,41.17
2018-02-09T06:07:15.468Z,43.97
2018-02-09T06:09:41.681Z,42.30
2018-02-09T06:12:08.229Z,45.45
2018-02-09T06:14:34.588Z,48.95
2018-02-09T06:17:00.768Z,47.47
2018-02-09T06:19:26.935Z,44.53
2018-02-09T06:21:53.069Z,46.90
2018-02-09T06:24:19.600Z,44.10
2018-02-09T06:26:45.766Z,46.33
2018-02-09T06:29:12.697Z,42.20
2018-02-09T06:31:38.849Z,45.17
2018-02-09T06:34:05.793Z,43.47
2018-02-09T06:36:36.757Z,42.60
2018-02-09T06:39:02.942Z,47.60
2018-02-09T06:41:29.101Z,45.05
2018-02-09T06:43:55.373Z,43.45
2018-02-09T06:46:21.533Z,44.85
2018-02-09T06:48:47.754Z,41.65
2018-02-09T06:51:13.941Z,42.53
2018-02-09T06:53:40.115Z,45.72
2018-02-09T06:56:06.298Z,41.70
2018-02-09T06:58:32.470Z,43.85
2018-02-09T07:00:58.650Z,43.55
2018-02-09T07:03:24.860Z,44.40
2018-02-09T07:05:51.048Z,44.28
2018-02-09T07:08:18.720Z,40.83
2018-02-09T07:10:44.853Z,43.13
2018-02-09T07:13:11.777Z,41.13
2018-02-09T07:15:37.934Z,42.70
2018-02-09T07:18:04.907Z,46.28
2018-02-09T07:20:31.086Z,44.17
2018-02-09T07:22:57.327Z,46.75
2018-02-09T07:25:23.470Z,43.20
2018-02-09T07:27:50.806Z,44.83
2018-02-09T07:30:17.027Z,43.17
2018-02-09T07:32:43.215Z,45.40
2018-02-09T07:35:09.413Z,41.72
2018-02-09T07:37:35.700Z,42.15
2018-02-09T07:40:02.720Z,46.72
2018-02-09T07:42:28.939Z,44.42
2018-02-09T07:44:55.204Z,41.47
2018-02-09T07:47:21.415Z,44.08
2018-02-09T07:49:47.625Z,43.40
2018-02-09T07:52:13.796Z,46.55
2018-02-09T07:54:39.991Z,44.33
2018-02-09T07:57:06.168Z,40.35
2018-02-09T07:59:32.347Z,44.47
2018-02-09T08:01:58.582Z,41.97
2018-02-09T08:04:24.838Z,45.00
2018-02-09T08:06:51.052Z,43.55
2018-02-09T08:09:17.191Z,43.95
2018-02-09T08:11:43.455Z,46.50
2018-02-09T08:14:10.364Z,43.10
2018-02-09T08:16:36.563Z,42.47
2018-02-09T08:19:02.726Z,43.55
2018-02-09T08:21:28.943Z,43.63
2018-02-09T08:23:55.150Z,41.60
2018-02-09T08:26:21.388Z,44.53
2018-02-09T08:28:47.578Z,44.65
2018-02-09T08:31:13.773Z,43.72
2018-02-09T08:33:40.721Z,44.63
2018-02-09T08:36:06.951Z,44.78
2018-02-09T08:38:33.124Z,45.45
2018-02-09T08:40:59.272Z,51.03
2018-02-09T08:43:25.520Z,46.80
2018-02-09T08:45:51.693Z,46.63
2018-02-09T08:48:17.939Z,44.35
2018-02-09T08:50:44.136Z,47.55
2018-02-09T08:53:11.089Z,47.15
2018-02-09T08:55:38.055Z,45.75
2018-02-09T08:58:04.279Z,43.05
2018-02-09T09:00:30.447Z,42.78
2018-02-09T09:02:57.621Z,45.92
2018-02-09T09:05:23.811Z,43.63
2018-02-09T09:07:50.007Z,44.65
2018-02-09T09:10:16.331Z,47.78
2018-02-09T09:12:43.226Z,47.03
2018-02-09T09:15:09.821Z,47.30
2018-02-09T09:17:36.734Z,44.88
2018-02-09T09:20:02.954Z,45.90
2018-02-09T09:22:29.130Z,46.35
2018-02-09T09:24:55.305Z,45.40
2018-02-09T09:27:21.478Z,44.03
2018-02-09T09:29:48.361Z,47.60
2018-02-09T09:32:14.556Z,44.88
2018-02-09T09:34:40.730Z,48.08
2018-02-09T09:37:06.910Z,50.72
2018-02-09T09:39:33.218Z,46.97
2018-02-09T09:42:00.190Z,46.92
2018-02-09T09:44:26.360Z,45.85
2018-02-09T09:46:52.560Z,47.58
2018-02-09T09:49:18.726Z,45.75
2018-02-09T09:51:44.908Z,48.17
2018-02-09T09:54:11.066Z,45.50
2018-02-09T09:56:38.117Z,47.60
2018-02-09T09:59:04.291Z,46.78
2018-02-09T10:01:30.842Z,47.70
2018-02-09T10:03:57.011Z,48.45
2018-02-09T10:06:23.214Z,45.03
2018-02-09T10:08:49.442Z,45.55
2018-02-09T10:11:15.626Z,45.17
2018-02-09T10:13:42.542Z,26.83
2018-02-09T10:16:08.846Z,28.27
2018-02-09T10:18:34.975Z,27.17
2018-02-09T10:21:01.160Z,43.60
2018-02-09T10:23:27.411Z,44.20
2018-02-09T10:25:53.556Z,41.25
2018-02-09T10:28:19.728Z,48.30
2018-02-09T10:30:45.909Z,45.37
2018-02-09T10:33:12.457Z,48.93
2018-02-09T10:35:38.623Z,50.05
2018-02-09T10:38:04.801Z,46.50
2018-02-09T10:40:31.029Z,45.42
2018-02-09T10:42:57.226Z,47.67
2018-02-09T10:45:24.176Z,44.75
2018-02-09T10:47:51.124Z,47.97
2018-02-09T10:50:17.258Z,46.83
2018-02-09T10:52:44.225Z,48.00
2018-02-09T10:55:10.384Z,47.55
2018-02-09T10:57:36.570Z,46.28
2018-02-09T11:00:02.841Z,44.08
2018-02-09T11:02:29.754Z,49.25
2018-02-09T11:04:55.948Z,45.95
2018-02-09T11:07:22.912Z,47.35
2018-02-09T11:09:50.265Z,49.78
2018-02-09T11:12:26.426Z,47.60
2018-02-09T11:14:53.345Z,47.55
2018-02-09T11:17:20.285Z,47.60
2018-02-09T11:19:46.474Z,47.90
2018-02-09T11:22:12.707Z,43.72
2018-02-09T11:24:38.922Z,47.60
2018-02-09T11:27:05.153Z,46.85
2018-02-09T11:29:32.030Z,46.05
2018-02-09T11:31:58.257Z,45.15
2018-02-09T11:34:24.439Z,47.53
2018-02-09T11:36:50.648Z,42.72
2018-02-09T11:39:17.574Z,41.83
2018-02-09T11:41:43.729Z,43.42
2018-02-09T11:44:10.723Z,40.85
2018-02-09T11:46:36.950Z,42.95
2018-02-09T11:49:03.138Z,43.90
2018-02-09T11:51:30.082Z,43.65
2018-02-09T11:53:56.981Z,44.95
2018-02-09T11:56:23.220Z,44.10
2018-02-09T11:58:49.397Z,44.00
2018-02-09T12:01:15.591Z,43.08
2018-02-09T12:03:42.578Z,42.25
2018-02-09T12:06:08.759Z,43.75
2018-02-09T12:08:34.946Z,42.33
2018-02-09T12:11:01.291Z,37.80
2018-02-09T12:13:27.485Z,40.35
2018-02-09T12:15:53.693Z,40.80
2018-02-09T12:18:20.672Z,28.58
2018-02-09T12:20:46.940Z,30.88
2018-02-09T12:23:13.170Z,38.20
2018-02-09T12:25:39.356Z,38.33
2018-02-09T12:28:05.582Z,35.50
2018-02-09T12:30:31.795Z,35.70
2018-02-09T12:32:58.734Z,33.08
2018-02-09T12:35:25.633Z,31.08
2018-02-09T12:37:51.802Z,31.70
2018-02-09T12:40:18.703Z,28.77
2018-02-09T12:42:44.890Z,29.65
2018-02-09T12:45:11.114Z,28.45
2018-02-09T12:47:38.047Z,26.50
2018-02-09T12:50:04.983Z,28.62
2018-02-09T12:52:31.888Z,26.35
2018-02-09T12:54:58.052Z,28.00
2018-02-09T12:57:24.238Z,27.52
2018-02-09T12:59:50.454Z,24.35
2018-02-09T13:02:16.994Z,26.83
2018-02-09T13:04:43.182Z,28.38
2018-02-09T13:07:10.114Z,26.85
2018-02-09T13:09:36.332Z,26.85
2018-02-09T13:12:02.676Z,26.45
2018-02-09T13:14:40.981Z,27.75
2018-02-09T13:17:07.946Z,27.70
2018-02-09T13:19:34.122Z,25.52
2018-02-09T13:22:00.379Z,27.00
2018-02-09T13:24:26.588Z,29.23
2018-02-09T13:26:52.795Z,26.33
2018-02-09T13:29:19.059Z,25.90
2018-02-09T13:31:45.262Z,27.20
2018-02-09T13:34:11.467Z,26.35
2018-02-09T13:39:36.385Z,28.60
2018-02-09T13:42:02.585Z,25.45
2018-02-09T13:44:28.797Z,27.42
2018-02-09T13:46:54.960Z,29.70
2018-02-09T13:49:21.899Z,27.95
2018-02-09T13:51:48.116Z,27.42
2018-02-09T13:54:14.335Z,24.90
2018-02-09T13:56:40.610Z,24.85
2018-02-09T13:59:06.804Z,25.25
2018-02-09T14:01:33.051Z,26.95
2018-02-09T14:03:59.990Z,25.55
2018-02-09T14:06:26.933Z,25.50
2018-02-09T14:08:53.129Z,25.98
2018-02-09T14:11:20.083Z,27.40
2018-02-09T14:13:46.233Z,29.00
2018-02-09T14:16:13.261Z,25.00
2018-02-09T14:18:39.440Z,27.35
2018-02-09T14:21:05.718Z,24.75
2018-02-09T14:23:31.915Z,24.52
2018-02-09T14:25:58.094Z,27.98
2018-02-09T14:28:24.250Z,24.87
2018-02-09T14:30:50.429Z,25.85
2018-02-09T14:33:16.628Z,27.20
2018-02-09T14:35:42.842Z,25.95
2018-02-09T14:38:09.876Z,25.17
2018-02-09T14:40:36.849Z,24.67
2018-02-09T14:43:03.068Z,25.10
2018-02-09T14:45:29.265Z,24.95
2018-02-09T14:47:55.453Z,25.77
2018-02-09T14:50:21.654Z,25.62
2018-02-09T14:52:47.832Z,26.50
2018-02-09T14:55:14.052Z,25.45
2018-02-09T14:57:40.339Z,26.75
2018-02-09T15:00:06.554Z,23.65
2018-02-09T15:02:32.791Z,27.30
2018-02-09T15:04:59.728Z,27.02
2018-02-09T15:07:27.279Z,24.15
2018-02-09T15:09:54.220Z,26.98
2018-02-09T15:12:21.172Z,27.85
2018-02-09T15:14:48.145Z,26.60
2018-02-09T15:17:14.336Z,25.40
2018-02-09T15:19:40.474Z,26.05
2018-02-09T15:22:07.386Z,25.88
2018-02-09T15:24:33.635Z,26.30
2018-02-09T15:27:00.594Z,25.85
2018-02-09T15:29:27.554Z,27.05
2018-02-09T15:31:53.757Z,25.48
2018-02-09T15:34:20.791Z,23.92
2018-02-09T15:36:46.991Z,25.85
2018-02-09T15:39:13.305Z,26.12
2018-02-09T15:41:39.540Z,24.87
2018-02-09T15:44:05.712Z,25.58
2018-02-09T15:46:31.902Z,25.60
2018-02-09T15:48:58.072Z,24.58
2018-02-09T15:51:24.271Z,26.45
2018-02-09T15:53:50.449Z,26.80
2018-02-09T15:56:17.371Z,27.40
2018-02-09T15:58:43.553Z,26.15
2018-02-09T16:01:09.745Z,26.42
2018-02-09T16:03:36.652Z,29.52
2018-02-09T16:06:02.887Z,28.05
2018-02-09T16:08:29.159Z,26.85
2018-02-09T16:10:56.085Z,24.52
2018-02-09T16:13:22.236Z,26.55
2018-02-09T16:15:48.437Z,29.60
2018-02-09T16:18:14.646Z,27.30
2018-02-09T16:20:40.877Z,29.02
2018-02-09T16:23:07.093Z,26.05
2018-02-09T16:25:33.290Z,27.15
2018-02-09T16:27:59.490Z,26.52
2018-02-09T16:30:26.387Z,26.40
2018-02-09T16:32:52.951Z,25.88
2018-02-09T16:35:19.492Z,28.10
2018-02-09T16:37:45.701Z,27.13
2018-02-09T16:40:11.898Z,27.33
2018-02-09T16:42:38.090Z,28.08
2018-02-09T16:45:04.299Z,27.92
2018-02-09T16:47:30.479Z,28.77
2018-02-09T16:49:56.651Z,27.30
2018-02-09T16:52:23.241Z,26.33
2018-02-09T16:54:49.473Z,27.02
2018-02-09T16:57:16.408Z,26.92
2018-02-09T16:59:42.636Z,25.30
2018-02-09T17:02:08.827Z,27.10
2018-02-09T17:04:35.058Z,25.00
2018-02-09T17:07:01.257Z,25.50
2018-02-09T17:09:27.482Z,26.48
2018-02-09T17:11:55.192Z,27.92
2018-02-09T17:14:22.168Z,25.95
2018-02-09T17:16:48.368Z,24.60
2018-02-09T17:19:15.346Z,28.27
2018-02-09T17:21:41.496Z,25.77
2018-02-09T17:24:07.683Z,26.48
2018-02-09T17:26:34.573Z,24.83
2018-02-09T17:29:01.507Z,26.98
2018-02-09T17:31:27.727Z,29.02
2018-02-09T17:33:53.993Z,28.12
2018-02-09T17:36:20.217Z,25.95
2018-02-09T17:38:46.423Z,28.50
2018-02-09T17:41:13.096Z,26.92
2018-02-09T17:43:39.260Z,26.55
2018-02-09T17:46:06.188Z,30.33
2018-02-09T17:48:32.770Z,26.62
2018-02-09T17:50:58.947Z,26.58
2018-02-09T17:53:25.131Z,26.23
2018-02-09T17:55:51.350Z,25.77
2018-02-09T17:58:18.872Z,24.05
2018-02-09T18:00:45.226Z,28.10
2018-02-09T18:03:11.400Z,26.02
2018-02-09T18:05:37.629Z,24.70
2018-02-09T18:08:03.844Z,26.70
2018-02-09T18:10:30.066Z,26.77
2018-02-09T18:12:56.257Z,27.15
2018-02-09T18:15:22.830Z,26.37
2018-02-09T18:17:49.001Z,27.33
2018-02-09T18:20:15.222Z,25.50
2018-02-09T18:22:41.427Z,29.75
2018-02-09T18:25:07.689Z,27.70
2018-02-09T18:27:33.919Z,29.20
2018-02-09T18:30:00.125Z,28.45
2018-02-09T18:32:26.316Z,27.52
2018-02-09T18:34:52.500Z,25.80
2018-02-09T18:37:18.725Z,27.90
2018-02-09T18:39:46.394Z,22.08
2018-02-09T18:42:12.566Z,21.87
2018-02-09T18:44:39.267Z,17.57
2018-02-09T18:47:06.251Z,24.47
2018-02-09T18:49:32.517Z,25.00
2018-02-09T18:51:58.767Z,25.88
2018-02-09T18:54:24.973Z,25.75
2018-02-09T18:56:51.213Z,25.80
2018-02-09T18:59:17.456Z,25.00
2018-02-09T19:11:33.669Z,26.50
2018-02-09T19:13:59.865Z,25.58
2018-02-09T19:16:26.781Z,24.27
2018-02-09T19:18:52.990Z,25.23
2018-02-09T19:21:19.158Z,24.63
2018-02-09T19:23:46.141Z,24.52
2018-02-09T19:26:12.361Z,23.73
2018-02-09T19:28:38.553Z,23.70
2018-02-09T19:31:06.281Z,24.77
2018-02-09T19:33:32.478Z,24.70
2018-02-09T19:35:58.720Z,24.75
2018-02-09T19:38:24.974Z,24.35
2018-02-09T19:40:51.927Z,23.35
2018-02-09T19:43:18.119Z,24.80
2018-02-09T19:45:44.361Z,22.95
2018-02-09T19:48:10.596Z,21.58
2018-02-09T19:50:36.808Z,21.55
2018-02-09T19:53:03.100Z,20.52
2018-02-09T19:55:29.236Z,22.48
2018-02-09T19:57:56.208Z,20.35
2018-02-09T20:00:22.359Z,22.95
2018-02-09T20:02:48.582Z,22.55
2018-02-09T20:05:14.827Z,20.70
2018-02-09T20:10:30.643Z,22.70
2018-02-09T20:12:56.837Z,20.52
2018-02-09T20:15:23.047Z,23.17
2018-02-09T20:17:49.981Z,23.00
2018-02-09T20:20:16.927Z,22.37
2018-02-09T20:22:43.167Z,21.42
2018-02-09T20:25:09.811Z,22.27
2018-02-09T20:27:36.129Z,22.25
2018-02-09T20:30:03.098Z,23.55
2018-02-09T20:32:29.266Z,22.15
2018-02-09T20:34:55.503Z,23.23
2018-02-09T20:37:21.801Z,22.60
2018-02-09T20:39:48.176Z,24.42
2018-02-09T20:42:14.431Z,20.73
2018-02-09T20:44:41.372Z,24.52
2018-02-09T20:47:08.325Z,22.95
2018-02-09T20:49:34.581Z,21.50
2018-02-09T20:52:00.809Z,24.60
2018-02-09T20:54:27.004Z,22.80
2018-02-09T20:56:54.364Z,21.90
2018-02-09T20:59:21.330Z,23.17
2018-02-09T21:01:47.659Z,22.95
2018-02-09T21:04:14.907Z,22.58
2018-02-09T21:06:41.106Z,23.38
2018-02-09T21:09:08.103Z,25.85
2018-02-09T21:11:34.345Z,23.00
2018-02-09T21:14:00.596Z,24.77
2018-02-09T21:16:26.922Z,23.30
2018-02-09T21:18:53.508Z,24.77
2018-02-09T21:21:19.674Z,25.23
2018-02-09T21:23:45.871Z,25.17
2018-02-09T21:26:12.113Z,24.12
2018-02-09T21:28:38.358Z,24.85
2018-02-09T21:31:04.574Z,25.02
2018-02-09T21:33:30.756Z,23.67
2018-02-09T21:35:57.945Z,26.52
2018-02-09T21:38:24.179Z,26.62
2018-02-09T21:40:50.388Z,25.90
2018-02-09T21:43:16.630Z,24.67
2018-02-09T21:45:42.859Z,27.08
2018-02-09T21:48:09.058Z,23.83
2018-02-09T21:50:36.030Z,26.62
2018-02-09T21:53:02.262Z,22.60
2018-02-09T21:55:28.493Z,24.65
2018-02-09T21:57:54.708Z,23.25
2018-02-09T22:00:20.897Z,25.75
2018-02-09T22:02:47.102Z,24.67
2018-02-09T22:05:13.274Z,24.00
2018-02-09T22:07:40.178Z,26.35
2018-02-09T22:10:06.403Z,25.45
2018-02-09T22:12:32.596Z,24.63
2018-02-09T22:14:58.799Z,26.27
2018-02-09T22:17:24.995Z,24.50
2018-02-09T22:19:51.190Z,27.15
2018-02-09T22:22:17.380Z,25.65
2018-02-09T22:24:43.636Z,27.33
2018-02-09T22:27:09.847Z,27.23
2018-02-09T22:29:36.812Z,25.67
2018-02-09T22:32:03.012Z,25.10
2018-02-09T22:34:29.250Z,22.77
2018-02-09T22:36:56.188Z,24.50
2018-02-09T22:39:22.360Z,24.67
2018-02-09T22:41:48.601Z,25.20
2018-02-09T22:44:14.802Z,23.27
2018-02-09T22:46:41.044Z,24.15
2018-02-09T22:49:07.262Z,25.30
2018-02-09T22:51:33.469Z,24.37
2018-02-09T22:54:01.346Z,25.20
2018-02-09T22:56:27.552Z,24.30
2018-02-09T22:58:54.490Z,24.73
2018-02-09T23:01:20.745Z,27.08
2018-02-09T23:03:47.688Z,23.83
2018-02-09T23:06:14.579Z,23.62
2018-02-09T23:08:40.795Z,22.73
2018-02-09T23:11:06.985Z,23.75
2018-02-09T23:13:33.944Z,27.42
2018-02-09T23:16:00.136Z,24.12
2018-02-09T23:18:26.388Z,22.80
2018-02-09T23:20:53.302Z,25.42
2018-02-09T23:23:19.463Z,23.00
2018-02-09T23:25:46.362Z,22.77
2018-02-09T23:28:12.600Z,26.20
2018-02-09T23:30:38.773Z,23.83
2018-02-09T23:33:05.721Z,24.23
2018-02-09T23:35:32.630Z,24.30
2018-02-09T23:37:58.886Z,25.52
2018-02-09T23:40:25.851Z,23.10
2018-02-09T23:42:52.037Z,24.12
2018-02-09T23:45:18.290Z,24.60
2018-02-09T23:47:45.193Z,24.30
2018-02-09T23:50:11.409Z,24.40
2018-02-09T23:52:37.593Z,21.33
2018-02-09T23:55:04.515Z,21.77
2018-02-09T23:57:31.490Z,26.17
2018-02-09T23:59:57.586Z,21.42
